• Join FlightAware (Why Join?)
  • Login
  • US Flag 
02:27PM EDT


 

Airport Tracker/Info


-or-


 

Live Flight TrackerFlight Track Log ✈ KFS20 ✈ 05-Jul-2013 ✈ KYIP - 5A1

Flight Track Log - Related Links

Times and Time Zones

All times are in EDT time to prevent confusion due to time zone crossing. See the KFS20 flight status page for this flight to view local times or setup timezone preferences in your user account.

Time Position Orientation Groundspeed Altitude Reporting Facility
EDT Latitude Longitude Course Direction KTS MPH feet Rate Location/Type
02:58PM 42.2561 -83.5147 310° West 160 184 1,500  Level Cleveland Center
02:59PM 42.2781 -83.5497 310° West 194 223 2,500 1,500 Climbing Cleveland Center
03:00PM 42.3167 -83.5936 320° Northwest 196 226 4,500 1,680 Climbing Cleveland Center
03:01PM 42.3222 -83.5319 83° East 198 228 5,900 780 Climbing Cleveland Center
03:02PM 42.2969 -83.4633 116° Southeast 229 264 6,000  Climbing Cleveland Center
03:03PM 42.2656 -83.3861 119° Southeast 234 269 6,000  Level Cleveland Center
03:04PM 42.2383 -83.3036 114° Southeast 232 267 6,000  Level Cleveland Center
03:04PM 42.2147 -83.2383 116° Southeast 226 260 6,100  Climbing Cleveland Center
03:06PM 42.1750 -83.1581 124° Southeast 226 260 6,000 -60 Descending Cleveland Center
03:07PM 42.1286 -83.0889 132° Southeast 228 262 6,000  Level Cleveland Center
03:08PM 42.0881 -83.0342 135° Southeast 226 260 6,000  Level Cleveland Center
03:09PM 42.0347 -82.9931 150° Southeast 224 258 6,000 120 Level Cleveland Center
03:10PM 41.9792 -82.9603 156° South 221 254 6,300 420 Climbing Cleveland Center
03:11PM 41.9214 -82.9272 157° South 202 232 6,900 420 Climbing Cleveland Center
03:11PM 41.8883 -82.9094 158° South 204 235 7,000 60 Climbing Cleveland Center
03:12PM 41.8328 -82.8767 156° South 218 251 7,000  Level Cleveland Center
03:13PM 41.7750 -82.8469 159° South 223 257 7,000  Level Cleveland Center
03:14PM 41.7214 -82.8142 155° Southeast 222 255 7,000  Level Cleveland Center
03:15PM 41.6617 -82.7817 158° South 224 258 7,000 -480 Level Cleveland Center
03:16PM 41.6017 -82.7492 158° South 230 265 6,100 -900 Descending Cleveland Center
03:18PM 41.5490 -82.7199 156° South  Level FlightAware Approximate
03:25PM 41.2454 -82.5548 163° South  Level FlightAware Approximate